sensor_id;sensor_type;location;lat;lon;timestamp;P1;durP1;ratioP1;P2;durP2;ratioP2
25936;SDS011;13733;51.178;4.450;2023-03-11T00:01:24;8.55;;;2.70;;
25936;SDS011;13733;51.178;4.450;2023-03-11T00:03:50;12.32;;;2.85;;
25936;SDS011;13733;51.178;4.450;2023-03-11T00:06:16;12.70;;;2.78;;
25936;SDS011;13733;51.178;4.450;2023-03-11T00:08:41;18.70;;;4.22;;
25936;SDS011;13733;51.178;4.450;2023-03-11T00:11:07;15.32;;;4.00;;
25936;SDS011;13733;51.178;4.450;2023-03-11T00:13:33;12.02;;;3.30;;
25936;SDS011;13733;51.178;4.450;2023-03-11T00:16:01;9.55;;;2.83;;
25936;SDS011;13733;51.178;4.450;2023-03-11T00:18:28;15.82;;;2.85;;
25936;SDS011;13733;51.178;4.450;2023-03-11T00:20:55;10.00;;;2.67;;
25936;SDS011;13733;51.178;4.450;2023-03-11T00:23:22;9.00;;;2.67;;
25936;SDS011;13733;51.178;4.450;2023-03-11T00:25:49;14.15;;;2.72;;
25936;SDS011;13733;51.178;4.450;2023-03-11T00:28:15;13.10;;;3.10;;
25936;SDS011;13733;51.178;4.450;2023-03-11T00:30:42;11.88;;;3.15;;
25936;SDS011;13733;51.178;4.450;2023-03-11T00:33:10;25.20;;;3.85;;
25936;SDS011;13733;51.178;4.450;2023-03-11T00:35:39;16.55;;;3.47;;
25936;SDS011;13733;51.178;4.450;2023-03-11T00:38:07;16.65;;;3.15;;
25936;SDS011;13733;51.178;4.450;2023-03-11T00:40:37;14.38;;;3.10;;
25936;SDS011;13733;51.178;4.450;2023-03-11T00:43:03;9.45;;;2.70;;
25936;SDS011;13733;51.178;4.450;2023-03-11T00:45:29;10.18;;;2.85;;
25936;SDS011;13733;51.178;4.450;2023-03-11T00:47:55;13.15;;;3.25;;
25936;SDS011;13733;51.178;4.450;2023-03-11T00:50:25;8.57;;;2.88;;
25936;SDS011;13733;51.178;4.450;2023-03-11T00:52:53;11.90;;;4.20;;
25936;SDS011;13733;51.178;4.450;2023-03-11T00:55:20;10.40;;;3.00;;
25936;SDS011;13733;51.178;4.450;2023-03-11T00:57:52;10.13;;;3.30;;
25936;SDS011;13733;51.178;4.450;2023-03-11T01:00:21;11.75;;;2.85;;
25936;SDS011;13733;51.178;4.450;2023-03-11T01:02:48;7.10;;;2.85;;
25936;SDS011;13733;51.178;4.450;2023-03-11T01:05:14;7.32;;;3.17;;
25936;SDS011;13733;51.178;4.450;2023-03-11T01:07:42;10.18;;;3.35;;
25936;SDS011;13733;51.178;4.450;2023-03-11T01:10:08;8.98;;;2.72;;
25936;SDS011;13733;51.178;4.450;2023-03-11T01:12:35;18.30;;;3.88;;
25936;SDS011;13733;51.178;4.450;2023-03-11T01:15:02;11.73;;;3.25;;
25936;SDS011;13733;51.178;4.450;2023-03-11T01:17:28;10.93;;;3.20;;
25936;SDS011;13733;51.178;4.450;2023-03-11T01:19:54;11.48;;;3.50;;
25936;SDS011;13733;51.178;4.450;2023-03-11T01:22:20;11.65;;;3.05;;
25936;SDS011;13733;51.178;4.450;2023-03-11T01:24:46;15.00;;;3.53;;
25936;SDS011;13733;51.178;4.450;2023-03-11T01:27:12;11.05;;;3.15;;
25936;SDS011;13733;51.178;4.450;2023-03-11T01:29:37;9.30;;;3.30;;
25936;SDS011;13733;51.178;4.450;2023-03-11T01:32:03;12.50;;;3.60;;
25936;SDS011;13733;51.178;4.450;2023-03-11T01:34:29;10.35;;;3.60;;
25936;SDS011;13733;51.178;4.450;2023-03-11T01:37:01;12.23;;;3.60;;
25936;SDS011;13733;51.178;4.450;2023-03-11T01:39:27;10.57;;;3.28;;
25936;SDS011;13733;51.178;4.450;2023-03-11T01:41:53;13.30;;;3.63;;
25936;SDS011;13733;51.178;4.450;2023-03-11T01:44:23;8.52;;;3.58;;
25936;SDS011;13733;51.178;4.450;2023-03-11T01:49:21;9.13;;;3.10;;
25936;SDS011;13733;51.178;4.450;2023-03-11T01:51:53;13.63;;;3.88;;
25936;SDS011;13733;51.178;4.450;2023-03-11T01:54:25;13.27;;;3.40;;
25936;SDS011;13733;51.178;4.450;2023-03-11T01:56:56;11.35;;;3.55;;
25936;SDS011;13733;51.178;4.450;2023-03-11T01:59:35;21.92;;;4.25;;
25936;SDS011;13733;51.178;4.450;2023-03-11T02:04:36;15.57;;;4.20;;
25936;SDS011;13733;51.178;4.450;2023-03-11T02:07:03;13.63;;;3.83;;
25936;SDS011;13733;51.178;4.450;2023-03-11T02:09:31;12.20;;;3.70;;
25936;SDS011;13733;51.178;4.450;2023-03-11T02:11:56;15.25;;;4.07;;
25936;SDS011;13733;51.178;4.450;2023-03-11T02:14:23;11.80;;;4.60;;
25936;SDS011;13733;51.178;4.450;2023-03-11T02:16:52;12.82;;;3.35;;
25936;SDS011;13733;51.178;4.450;2023-03-11T02:22:14;14.77;;;4.00;;
25936;SDS011;13733;51.178;4.450;2023-03-11T02:25:15;19.85;;;3.78;;
25936;SDS011;13733;51.178;4.450;2023-03-11T02:27:47;14.00;;;4.00;;
25936;SDS011;13733;51.178;4.450;2023-03-11T02:30:17;11.27;;;3.47;;
25936;SDS011;13733;51.178;4.450;2023-03-11T02:32:45;13.40;;;3.75;;
25936;SDS011;13733;51.178;4.450;2023-03-11T02:35:15;12.35;;;2.92;;
25936;SDS011;13733;51.178;4.450;2023-03-11T02:37:49;15.73;;;3.40;;
25936;SDS011;13733;51.178;4.450;2023-03-11T02:43:01;15.55;;;3.38;;
25936;SDS011;13733;51.178;4.450;2023-03-11T02:45:32;11.55;;;2.80;;
25936;SDS011;13733;51.178;4.450;2023-03-11T02:47:58;10.90;;;3.35;;
25936;SDS011;13733;51.178;4.450;2023-03-11T02:50:25;10.23;;;2.95;;
25936;SDS011;13733;51.178;4.450;2023-03-11T02:52:53;9.48;;;3.10;;
25936;SDS011;13733;51.178;4.450;2023-03-11T02:55:21;7.05;;;2.75;;
25936;SDS011;13733;51.178;4.450;2023-03-11T02:57:47;11.57;;;3.65;;
25936;SDS011;13733;51.178;4.450;2023-03-11T03:00:13;12.48;;;3.00;;
25936;SDS011;13733;51.178;4.450;2023-03-11T03:02:47;11.40;;;3.35;;
25936;SDS011;13733;51.178;4.450;2023-03-11T03:05:17;11.18;;;3.53;;
25936;SDS011;13733;51.178;4.450;2023-03-11T03:10:15;9.00;;;3.85;;
25936;SDS011;13733;51.178;4.450;2023-03-11T03:12:42;9.48;;;3.63;;
25936;SDS011;13733;51.178;4.450;2023-03-11T03:15:08;11.68;;;3.80;;
25936;SDS011;13733;51.178;4.450;2023-03-11T03:17:35;13.25;;;3.72;;
25936;SDS011;13733;51.178;4.450;2023-03-11T03:20:03;14.18;;;3.80;;
25936;SDS011;13733;51.178;4.450;2023-03-11T03:22:32;14.98;;;3.90;;
25936;SDS011;13733;51.178;4.450;2023-03-11T03:24:58;16.70;;;3.97;;
25936;SDS011;13733;51.178;4.450;2023-03-11T03:27:24;12.32;;;3.40;;
25936;SDS011;13733;51.178;4.450;2023-03-11T03:29:50;17.48;;;3.80;;
25936;SDS011;13733;51.178;4.450;2023-03-11T03:32:16;17.42;;;3.70;;
25936;SDS011;13733;51.178;4.450;2023-03-11T03:34:42;13.05;;;3.92;;
25936;SDS011;13733;51.178;4.450;2023-03-11T03:37:08;9.90;;;3.30;;
25936;SDS011;13733;51.178;4.450;2023-03-11T03:39:33;11.48;;;3.70;;
25936;SDS011;13733;51.178;4.450;2023-03-11T03:41:59;9.57;;;3.22;;
25936;SDS011;13733;51.178;4.450;2023-03-11T03:44:27;15.70;;;3.72;;
25936;SDS011;13733;51.178;4.450;2023-03-11T03:46:55;15.23;;;3.67;;
25936;SDS011;13733;51.178;4.450;2023-03-11T03:49:21;9.85;;;3.30;;
25936;SDS011;13733;51.178;4.450;2023-03-11T03:51:46;14.68;;;4.10;;
25936;SDS011;13733;51.178;4.450;2023-03-11T03:54:21;13.38;;;3.85;;
25936;SDS011;13733;51.178;4.450;2023-03-11T03:56:47;9.55;;;3.33;;
25936;SDS011;13733;51.178;4.450;2023-03-11T03:59:12;9.73;;;3.20;;
25936;SDS011;13733;51.178;4.450;2023-03-11T04:01:44;9.18;;;3.45;;
25936;SDS011;13733;51.178;4.450;2023-03-11T04:04:10;12.27;;;3.95;;
25936;SDS011;13733;51.178;4.450;2023-03-11T04:06:35;12.30;;;3.78;;
25936;SDS011;13733;51.178;4.450;2023-03-11T04:09:05;12.27;;;3.58;;
25936;SDS011;13733;51.178;4.450;2023-03-11T04:11:33;10.48;;;3.67;;
25936;SDS011;13733;51.178;4.450;2023-03-11T04:14:00;13.27;;;3.75;;
25936;SDS011;13733;51.178;4.450;2023-03-11T04:16:28;13.05;;;3.88;;
25936;SDS011;13733;51.178;4.450;2023-03-11T04:18:59;13.45;;;3.70;;
25936;SDS011;13733;51.178;4.450;2023-03-11T04:21:25;14.40;;;4.47;;
25936;SDS011;13733;51.178;4.450;2023-03-11T04:23:52;9.13;;;4.22;;
25936;SDS011;13733;51.178;4.450;2023-03-11T04:26:25;17.63;;;3.53;;
25936;SDS011;13733;51.178;4.450;2023-03-11T04:28:52;10.10;;;4.07;;
25936;SDS011;13733;51.178;4.450;2023-03-11T04:31:19;12.77;;;3.90;;
25936;SDS011;13733;51.178;4.450;2023-03-11T04:33:45;10.27;;;3.63;;
25936;SDS011;13733;51.178;4.450;2023-03-11T04:36:11;10.15;;;3.80;;
25936;SDS011;13733;51.178;4.450;2023-03-11T04:38:38;7.60;;;3.50;;
25936;SDS011;13733;51.178;4.450;2023-03-11T04:41:06;11.82;;;4.10;;
25936;SDS011;13733;51.178;4.450;2023-03-11T04:43:35;14.32;;;3.60;;
25936;SDS011;13733;51.178;4.450;2023-03-11T04:46:01;11.63;;;3.60;;
25936;SDS011;13733;51.178;4.450;2023-03-11T04:48:28;12.82;;;4.40;;
25936;SDS011;13733;51.178;4.450;2023-03-11T04:50:54;14.95;;;3.83;;
25936;SDS011;13733;51.178;4.450;2023-03-11T04:53:20;12.27;;;3.67;;
25936;SDS011;13733;51.178;4.450;2023-03-11T04:55:46;9.88;;;3.90;;
25936;SDS011;13733;51.178;4.450;2023-03-11T04:58:13;11.57;;;3.97;;
25936;SDS011;13733;51.178;4.450;2023-03-11T05:00:39;10.07;;;3.55;;
25936;SDS011;13733;51.178;4.450;2023-03-11T05:03:08;15.93;;;4.10;;
25936;SDS011;13733;51.178;4.450;2023-03-11T05:05:34;15.00;;;3.90;;
25936;SDS011;13733;51.178;4.450;2023-03-11T05:08:01;10.48;;;3.95;;
25936;SDS011;13733;51.178;4.450;2023-03-11T05:10:28;13.40;;;3.70;;
25936;SDS011;13733;51.178;4.450;2023-03-11T05:12:56;9.05;;;4.05;;
25936;SDS011;13733;51.178;4.450;2023-03-11T05:15:27;14.32;;;4.25;;
25936;SDS011;13733;51.178;4.450;2023-03-11T05:17:56;14.07;;;3.30;;
25936;SDS011;13733;51.178;4.450;2023-03-11T05:20:22;8.63;;;3.33;;
25936;SDS011;13733;51.178;4.450;2023-03-11T05:22:48;11.00;;;3.35;;
25936;SDS011;13733;51.178;4.450;2023-03-11T05:25:14;8.02;;;3.33;;
25936;SDS011;13733;51.178;4.450;2023-03-11T05:27:39;12.80;;;3.40;;
25936;SDS011;13733;51.178;4.450;2023-03-11T05:30:07;14.80;;;4.07;;
25936;SDS011;13733;51.178;4.450;2023-03-11T05:32:34;10.70;;;3.38;;
25936;SDS011;13733;51.178;4.450;2023-03-11T05:35:02;11.60;;;3.50;;
25936;SDS011;13733;51.178;4.450;2023-03-11T05:37:29;13.25;;;3.60;;
25936;SDS011;13733;51.178;4.450;2023-03-11T05:39:56;12.20;;;3.70;;
25936;SDS011;13733;51.178;4.450;2023-03-11T05:42:22;12.57;;;4.53;;
25936;SDS011;13733;51.178;4.450;2023-03-11T05:44:50;12.85;;;4.55;;
25936;SDS011;13733;51.178;4.450;2023-03-11T05:47:16;12.57;;;4.10;;
25936;SDS011;13733;51.178;4.450;2023-03-11T05:49:45;12.23;;;4.22;;
25936;SDS011;13733;51.178;4.450;2023-03-11T05:52:14;10.88;;;4.15;;
25936;SDS011;13733;51.178;4.450;2023-03-11T05:54:40;11.70;;;4.10;;
25936;SDS011;13733;51.178;4.450;2023-03-11T05:57:06;9.75;;;3.72;;
25936;SDS011;13733;51.178;4.450;2023-03-11T05:59:33;15.02;;;4.65;;
25936;SDS011;13733;51.178;4.450;2023-03-11T06:02:02;8.43;;;4.20;;
25936;SDS011;13733;51.178;4.450;2023-03-11T06:04:28;12.77;;;4.78;;
25936;SDS011;13733;51.178;4.450;2023-03-11T06:06:54;14.85;;;4.85;;
25936;SDS011;13733;51.178;4.450;2023-03-11T06:09:23;16.05;;;5.68;;
25936;SDS011;13733;51.178;4.450;2023-03-11T06:11:51;11.90;;;5.05;;
25936;SDS011;13733;51.178;4.450;2023-03-11T06:14:19;13.38;;;5.45;;
25936;SDS011;13733;51.178;4.450;2023-03-11T06:16:48;12.23;;;5.35;;
25936;SDS011;13733;51.178;4.450;2023-03-11T06:19:14;15.23;;;5.90;;
25936;SDS011;13733;51.178;4.450;2023-03-11T06:24:10;12.73;;;5.13;;
25936;SDS011;13733;51.178;4.450;2023-03-11T06:26:36;10.75;;;5.40;;
25936;SDS011;13733;51.178;4.450;2023-03-11T06:29:03;13.43;;;4.95;;
25936;SDS011;13733;51.178;4.450;2023-03-11T06:31:29;17.05;;;5.80;;
25936;SDS011;13733;51.178;4.450;2023-03-11T06:34:02;14.50;;;5.38;;
25936;SDS011;13733;51.178;4.450;2023-03-11T06:36:28;10.20;;;5.15;;
25936;SDS011;13733;51.178;4.450;2023-03-11T06:38:55;17.33;;;5.88;;
25936;SDS011;13733;51.178;4.450;2023-03-11T06:41:23;14.25;;;5.80;;
25936;SDS011;13733;51.178;4.450;2023-03-11T06:43:50;11.68;;;5.50;;
25936;SDS011;13733;51.178;4.450;2023-03-11T06:46:16;14.25;;;5.85;;
25936;SDS011;13733;51.178;4.450;2023-03-11T06:48:45;14.60;;;6.70;;
25936;SDS011;13733;51.178;4.450;2023-03-11T06:51:13;11.73;;;5.60;;
25936;SDS011;13733;51.178;4.450;2023-03-11T06:53:40;13.98;;;5.97;;
25936;SDS011;13733;51.178;4.450;2023-03-11T06:56:10;16.92;;;6.13;;
25936;SDS011;13733;51.178;4.450;2023-03-11T06:58:42;14.30;;;6.07;;
25936;SDS011;13733;51.178;4.450;2023-03-11T07:01:12;11.05;;;5.43;;
25936;SDS011;13733;51.178;4.450;2023-03-11T07:03:44;14.30;;;6.50;;
25936;SDS011;13733;51.178;4.450;2023-03-11T07:06:14;15.38;;;6.18;;
25936;SDS011;13733;51.178;4.450;2023-03-11T07:08:46;10.77;;;6.05;;
25936;SDS011;13733;51.178;4.450;2023-03-11T07:11:14;15.18;;;6.85;;
25936;SDS011;13733;51.178;4.450;2023-03-11T07:13:42;17.83;;;6.93;;
25936;SDS011;13733;51.178;4.450;2023-03-11T07:18:37;14.93;;;6.50;;
25936;SDS011;13733;51.178;4.450;2023-03-11T07:21:05;13.27;;;6.10;;
25936;SDS011;13733;51.178;4.450;2023-03-11T07:23:32;12.85;;;6.15;;
25936;SDS011;13733;51.178;4.450;2023-03-11T07:25:58;17.48;;;6.55;;
25936;SDS011;13733;51.178;4.450;2023-03-11T07:28:25;17.85;;;7.45;;
25936;SDS011;13733;51.178;4.450;2023-03-11T07:30:53;19.55;;;6.85;;
25936;SDS011;13733;51.178;4.450;2023-03-11T07:33:20;16.08;;;7.05;;
25936;SDS011;13733;51.178;4.450;2023-03-11T07:35:48;15.55;;;6.70;;
25936;SDS011;13733;51.178;4.450;2023-03-11T07:38:14;15.15;;;6.95;;
25936;SDS011;13733;51.178;4.450;2023-03-11T07:40:43;16.67;;;6.47;;
25936;SDS011;13733;51.178;4.450;2023-03-11T07:43:09;13.57;;;5.72;;
25936;SDS011;13733;51.178;4.450;2023-03-11T07:45:35;14.88;;;6.88;;
25936;SDS011;13733;51.178;4.450;2023-03-11T07:48:01;13.98;;;5.82;;
25936;SDS011;13733;51.178;4.450;2023-03-11T07:50:27;14.57;;;5.90;;
25936;SDS011;13733;51.178;4.450;2023-03-11T07:52:53;18.58;;;5.75;;
25936;SDS011;13733;51.178;4.450;2023-03-11T07:55:19;15.30;;;5.90;;
25936;SDS011;13733;51.178;4.450;2023-03-11T07:57:45;15.13;;;5.53;;
25936;SDS011;13733;51.178;4.450;2023-03-11T08:00:13;16.75;;;6.20;;
25936;SDS011;13733;51.178;4.450;2023-03-11T08:02:40;16.35;;;6.60;;
25936;SDS011;13733;51.178;4.450;2023-03-11T08:05:05;12.02;;;6.25;;
25936;SDS011;13733;51.178;4.450;2023-03-11T08:07:32;11.88;;;5.65;;
25936;SDS011;13733;51.178;4.450;2023-03-11T08:09:58;15.05;;;6.53;;
25936;SDS011;13733;51.178;4.450;2023-03-11T08:12:23;12.60;;;6.18;;
25936;SDS011;13733;51.178;4.450;2023-03-11T08:14:50;12.68;;;5.75;;
25936;SDS011;13733;51.178;4.450;2023-03-11T08:17:16;11.95;;;5.50;;
25936;SDS011;13733;51.178;4.450;2023-03-11T08:19:42;17.13;;;5.97;;
25936;SDS011;13733;51.178;4.450;2023-03-11T08:22:07;14.60;;;6.05;;
25936;SDS011;13733;51.178;4.450;2023-03-11T08:24:33;11.00;;;5.18;;
25936;SDS011;13733;51.178;4.450;2023-03-11T08:26:59;18.08;;;5.63;;
25936;SDS011;13733;51.178;4.450;2023-03-11T08:29:25;12.35;;;5.05;;
25936;SDS011;13733;51.178;4.450;2023-03-11T08:31:51;10.52;;;3.80;;
25936;SDS011;13733;51.178;4.450;2023-03-11T08:34:17;12.77;;;3.83;;
25936;SDS011;13733;51.178;4.450;2023-03-11T08:36:45;10.30;;;3.85;;
25936;SDS011;13733;51.178;4.450;2023-03-11T08:39:11;8.30;;;3.75;;
25936;SDS011;13733;51.178;4.450;2023-03-11T08:41:36;7.07;;;2.28;;
25936;SDS011;13733;51.178;4.450;2023-03-11T08:44:02;8.35;;;2.47;;
25936;SDS011;13733;51.178;4.450;2023-03-11T08:46:29;9.18;;;2.50;;
25936;SDS011;13733;51.178;4.450;2023-03-11T08:48:57;5.47;;;2.03;;
25936;SDS011;13733;51.178;4.450;2023-03-11T08:51:23;7.43;;;2.47;;
25936;SDS011;13733;51.178;4.450;2023-03-11T08:53:50;10.32;;;3.15;;
25936;SDS011;13733;51.178;4.450;2023-03-11T08:56:17;6.10;;;2.53;;
25936;SDS011;13733;51.178;4.450;2023-03-11T08:58:43;8.80;;;2.03;;
25936;SDS011;13733;51.178;4.450;2023-03-11T09:01:09;10.18;;;2.95;;
25936;SDS011;13733;51.178;4.450;2023-03-11T09:03:36;10.02;;;3.25;;
25936;SDS011;13733;51.178;4.450;2023-03-11T09:06:03;7.60;;;2.35;;
25936;SDS011;13733;51.178;4.450;2023-03-11T09:08:31;10.23;;;2.42;;
25936;SDS011;13733;51.178;4.450;2023-03-11T09:10:58;6.45;;;2.22;;
25936;SDS011;13733;51.178;4.450;2023-03-11T09:13:24;6.50;;;2.28;;
25936;SDS011;13733;51.178;4.450;2023-03-11T09:15:50;4.82;;;1.38;;
25936;SDS011;13733;51.178;4.450;2023-03-11T09:18:18;5.10;;;1.50;;
25936;SDS011;13733;51.178;4.450;2023-03-11T09:20:45;6.85;;;1.55;;
25936;SDS011;13733;51.178;4.450;2023-03-11T09:23:11;2.70;;;1.33;;
25936;SDS011;13733;51.178;4.450;2023-03-11T09:25:39;11.25;;;1.98;;
25936;SDS011;13733;51.178;4.450;2023-03-11T09:28:05;3.83;;;1.42;;
25936;SDS011;13733;51.178;4.450;2023-03-11T09:30:31;4.68;;;1.52;;
25936;SDS011;13733;51.178;4.450;2023-03-11T09:32:57;4.78;;;1.50;;
25936;SDS011;13733;51.178;4.450;2023-03-11T09:35:23;9.93;;;1.55;;
25936;SDS011;13733;51.178;4.450;2023-03-11T09:37:49;7.90;;;1.20;;
25936;SDS011;13733;51.178;4.450;2023-03-11T09:40:16;6.18;;;1.40;;
25936;SDS011;13733;51.178;4.450;2023-03-11T09:43:00;9.45;;;1.98;;
25936;SDS011;13733;51.178;4.450;2023-03-11T09:45:50;4.70;;;1.08;;
25936;SDS011;13733;51.178;4.450;2023-03-11T09:48:39;8.38;;;1.30;;
25936;SDS011;13733;51.178;4.450;2023-03-11T09:51:44;7.83;;;1.50;;
25936;SDS011;13733;51.178;4.450;2023-03-11T09:54:15;3.58;;;1.23;;
25936;SDS011;13733;51.178;4.450;2023-03-11T09:56:42;5.85;;;1.55;;
25936;SDS011;13733;51.178;4.450;2023-03-11T09:59:29;5.80;;;1.52;;
25936;SDS011;13733;51.178;4.450;2023-03-11T10:01:56;8.63;;;2.00;;
25936;SDS011;13733;51.178;4.450;2023-03-11T10:04:26;8.32;;;1.48;;
25936;SDS011;13733;51.178;4.450;2023-03-11T10:07:11;5.05;;;1.77;;
25936;SDS011;13733;51.178;4.450;2023-03-11T10:09:56;6.60;;;1.60;;
25936;SDS011;13733;51.178;4.450;2023-03-11T10:12:30;8.57;;;1.50;;
25936;SDS011;13733;51.178;4.450;2023-03-11T10:18:05;6.05;;;1.63;;
25936;SDS011;13733;51.178;4.450;2023-03-11T10:20:50;5.18;;;1.63;;
25936;SDS011;13733;51.178;4.450;2023-03-11T10:26:19;5.10;;;1.42;;
25936;SDS011;13733;51.178;4.450;2023-03-11T10:29:41;8.77;;;2.05;;
25936;SDS011;13733;51.178;4.450;2023-03-11T10:32:05;11.50;;;1.88;;
25936;SDS011;13733;51.178;4.450;2023-03-11T10:37:42;5.65;;;1.73;;
25936;SDS011;13733;51.178;4.450;2023-03-11T10:40:31;5.65;;;1.70;;
25936;SDS011;13733;51.178;4.450;2023-03-11T10:43:04;6.00;;;2.00;;
25936;SDS011;13733;51.178;4.450;2023-03-11T10:45:41;6.22;;;2.00;;
25936;SDS011;13733;51.178;4.450;2023-03-11T10:48:12;6.82;;;1.90;;
25936;SDS011;13733;51.178;4.450;2023-03-11T10:50:45;6.65;;;1.70;;
25936;SDS011;13733;51.178;4.450;2023-03-11T10:53:38;5.78;;;1.70;;
25936;SDS011;13733;51.178;4.450;2023-03-11T10:56:20;7.50;;;2.00;;
25936;SDS011;13733;51.178;4.450;2023-03-11T10:58:53;7.75;;;1.80;;
25936;SDS011;13733;51.178;4.450;2023-03-11T11:01:19;4.40;;;1.50;;
25936;SDS011;13733;51.178;4.450;2023-03-11T11:03:46;9.27;;;1.90;;
25936;SDS011;13733;51.178;4.450;2023-03-11T11:08:46;5.85;;;1.60;;
25936;SDS011;13733;51.178;4.450;2023-03-11T11:11:19;7.15;;;1.73;;
25936;SDS011;13733;51.178;4.450;2023-03-11T11:13:55;7.38;;;1.63;;
25936;SDS011;13733;51.178;4.450;2023-03-11T11:16:22;7.78;;;1.80;;
25936;SDS011;13733;51.178;4.450;2023-03-11T11:21:26;8.77;;;1.77;;
25936;SDS011;13733;51.178;4.450;2023-03-11T11:24:03;9.10;;;1.80;;
25936;SDS011;13733;51.178;4.450;2023-03-11T11:26:31;9.15;;;1.83;;
25936;SDS011;13733;51.178;4.450;2023-03-11T11:31:40;6.40;;;1.92;;
25936;SDS011;13733;51.178;4.450;2023-03-11T11:36:55;6.63;;;1.63;;
25936;SDS011;13733;51.178;4.450;2023-03-11T11:39:24;5.40;;;1.50;;
25936;SDS011;13733;51.178;4.450;2023-03-11T11:41:51;7.53;;;1.77;;
25936;SDS011;13733;51.178;4.450;2023-03-11T11:44:20;9.75;;;2.05;;
25936;SDS011;13733;51.178;4.450;2023-03-11T11:46:54;8.32;;;1.90;;
25936;SDS011;13733;51.178;4.450;2023-03-11T11:49:24;9.63;;;2.08;;
25936;SDS011;13733;51.178;4.450;2023-03-11T11:51:58;5.03;;;1.75;;
25936;SDS011;13733;51.178;4.450;2023-03-11T11:57:14;10.70;;;1.95;;
25936;SDS011;13733;51.178;4.450;2023-03-11T11:59:42;8.68;;;2.03;;
25936;SDS011;13733;51.178;4.450;2023-03-11T12:17:38;6.35;;;2.10;;
25936;SDS011;13733;51.178;4.450;2023-03-11T12:28:51;8.43;;;1.70;;
25936;SDS011;13733;51.178;4.450;2023-03-11T12:31:24;4.30;;;1.60;;
25936;SDS011;13733;51.178;4.450;2023-03-11T12:33:57;2.87;;;1.17;;
25936;SDS011;13733;51.178;4.450;2023-03-11T12:36:30;7.93;;;1.70;;
25936;SDS011;13733;51.178;4.450;2023-03-11T12:38:59;4.95;;;1.75;;
25936;SDS011;13733;51.178;4.450;2023-03-11T12:41:28;4.55;;;1.80;;
25936;SDS011;13733;51.178;4.450;2023-03-11T12:44:25;6.53;;;1.63;;
25936;SDS011;13733;51.178;4.450;2023-03-11T12:51:59;7.90;;;1.60;;
25936;SDS011;13733;51.178;4.450;2023-03-11T12:54:32;4.80;;;1.70;;
25936;SDS011;13733;51.178;4.450;2023-03-11T12:57:25;7.55;;;2.08;;
25936;SDS011;13733;51.178;4.450;2023-03-11T13:08:31;7.05;;;1.90;;
25936;SDS011;13733;51.178;4.450;2023-03-11T13:15:52;5.50;;;1.65;;
25936;SDS011;13733;51.178;4.450;2023-03-11T13:18:21;7.22;;;1.90;;
25936;SDS011;13733;51.178;4.450;2023-03-11T13:33:32;5.45;;;1.80;;
25936;SDS011;13733;51.178;4.450;2023-03-11T13:41:01;5.80;;;2.00;;
25936;SDS011;13733;51.178;4.450;2023-03-11T13:43:28;6.63;;;2.38;;
25936;SDS011;13733;51.178;4.450;2023-03-11T13:46:02;5.57;;;1.83;;
25936;SDS011;13733;51.178;4.450;2023-03-11T13:48:37;4.38;;;1.83;;
25936;SDS011;13733;51.178;4.450;2023-03-11T13:54:16;10.90;;;1.92;;
25936;SDS011;13733;51.178;4.450;2023-03-11T13:56:57;7.85;;;1.90;;
25936;SDS011;13733;51.178;4.450;2023-03-11T14:01:56;6.72;;;1.90;;
25936;SDS011;13733;51.178;4.450;2023-03-11T14:04:29;7.18;;;2.22;;
25936;SDS011;13733;51.178;4.450;2023-03-11T14:06:57;7.65;;;2.28;;
25936;SDS011;13733;51.178;4.450;2023-03-11T14:09:24;9.05;;;2.00;;
25936;SDS011;13733;51.178;4.450;2023-03-11T14:11:52;5.22;;;1.45;;
25936;SDS011;13733;51.178;4.450;2023-03-11T14:14:41;6.70;;;2.20;;
25936;SDS011;13733;51.178;4.450;2023-03-11T14:17:16;6.97;;;1.63;;
25936;SDS011;13733;51.178;4.450;2023-03-11T14:19:56;4.70;;;1.88;;
25936;SDS011;13733;51.178;4.450;2023-03-11T14:22:39;8.95;;;2.10;;
25936;SDS011;13733;51.178;4.450;2023-03-11T14:25:08;6.70;;;2.22;;
25936;SDS011;13733;51.178;4.450;2023-03-11T14:27:37;7.05;;;2.03;;
25936;SDS011;13733;51.178;4.450;2023-03-11T14:30:37;7.22;;;1.60;;
25936;SDS011;13733;51.178;4.450;2023-03-11T14:33:11;4.38;;;1.70;;
25936;SDS011;13733;51.178;4.450;2023-03-11T14:35:55;10.93;;;2.30;;
25936;SDS011;13733;51.178;4.450;2023-03-11T14:38:25;4.57;;;1.70;;
25936;SDS011;13733;51.178;4.450;2023-03-11T14:40:57;3.60;;;1.45;;
25936;SDS011;13733;51.178;4.450;2023-03-11T14:43:24;6.13;;;1.60;;
25936;SDS011;13733;51.178;4.450;2023-03-11T14:45:57;3.22;;;1.48;;
25936;SDS011;13733;51.178;4.450;2023-03-11T14:48:26;5.38;;;2.10;;
25936;SDS011;13733;51.178;4.450;2023-03-11T14:50:55;6.28;;;1.92;;
25936;SDS011;13733;51.178;4.450;2023-03-11T14:53:25;6.07;;;1.80;;
25936;SDS011;13733;51.178;4.450;2023-03-11T14:58:37;6.43;;;1.90;;
25936;SDS011;13733;51.178;4.450;2023-03-11T15:01:13;5.28;;;1.95;;
25936;SDS011;13733;51.178;4.450;2023-03-11T15:06:28;6.55;;;2.30;;
25936;SDS011;13733;51.178;4.450;2023-03-11T15:09:00;3.63;;;1.60;;
25936;SDS011;13733;51.178;4.450;2023-03-11T15:11:30;4.88;;;1.80;;
25936;SDS011;13733;51.178;4.450;2023-03-11T15:14:28;7.85;;;1.90;;
25936;SDS011;13733;51.178;4.450;2023-03-11T15:17:07;7.53;;;1.75;;
25936;SDS011;13733;51.178;4.450;2023-03-11T15:19:33;5.38;;;1.90;;
25936;SDS011;13733;51.178;4.450;2023-03-11T15:22:04;6.30;;;1.90;;
25936;SDS011;13733;51.178;4.450;2023-03-11T15:24:47;7.25;;;1.60;;
25936;SDS011;13733;51.178;4.450;2023-03-11T15:27:39;8.13;;;2.33;;
25936;SDS011;13733;51.178;4.450;2023-03-11T15:30:14;4.25;;;2.13;;
25936;SDS011;13733;51.178;4.450;2023-03-11T15:32:45;4.28;;;1.75;;
25936;SDS011;13733;51.178;4.450;2023-03-11T15:37:43;7.35;;;1.75;;
25936;SDS011;13733;51.178;4.450;2023-03-11T15:42:37;5.22;;;1.55;;
25936;SDS011;13733;51.178;4.450;2023-03-11T15:45:10;7.18;;;2.00;;
25936;SDS011;13733;51.178;4.450;2023-03-11T15:47:46;7.80;;;2.00;;
25936;SDS011;13733;51.178;4.450;2023-03-11T15:50:14;6.25;;;2.00;;
25936;SDS011;13733;51.178;4.450;2023-03-11T15:55:10;8.13;;;2.15;;
25936;SDS011;13733;51.178;4.450;2023-03-11T15:57:36;10.23;;;1.92;;
25936;SDS011;13733;51.178;4.450;2023-03-11T16:00:04;6.70;;;1.88;;
25936;SDS011;13733;51.178;4.450;2023-03-11T16:02:40;4.93;;;2.00;;
25936;SDS011;13733;51.178;4.450;2023-03-11T16:05:19;5.90;;;1.70;;
25936;SDS011;13733;51.178;4.450;2023-03-11T16:07:47;6.43;;;2.00;;
25936;SDS011;13733;51.178;4.450;2023-03-11T16:10:13;8.70;;;2.08;;
25936;SDS011;13733;51.178;4.450;2023-03-11T16:12:42;6.70;;;1.80;;
25936;SDS011;13733;51.178;4.450;2023-03-11T16:15:41;6.00;;;1.48;;
25936;SDS011;13733;51.178;4.450;2023-03-11T16:18:02;6.57;;;1.83;;
25936;SDS011;13733;51.178;4.450;2023-03-11T16:20:31;7.00;;;1.70;;
25936;SDS011;13733;51.178;4.450;2023-03-11T16:23:01;3.53;;;1.70;;
25936;SDS011;13733;51.178;4.450;2023-03-11T16:25:35;5.63;;;1.85;;
25936;SDS011;13733;51.178;4.450;2023-03-11T16:28:04;4.50;;;1.70;;
25936;SDS011;13733;51.178;4.450;2023-03-11T16:30:31;7.50;;;2.15;;
25936;SDS011;13733;51.178;4.450;2023-03-11T16:32:58;3.47;;;1.50;;
25936;SDS011;13733;51.178;4.450;2023-03-11T16:35:24;4.28;;;1.85;;
25936;SDS011;13733;51.178;4.450;2023-03-11T16:37:50;8.88;;;1.98;;
25936;SDS011;13733;51.178;4.450;2023-03-11T16:40:17;4.88;;;1.65;;
25936;SDS011;13733;51.178;4.450;2023-03-11T16:42:45;3.40;;;1.65;;
25936;SDS011;13733;51.178;4.450;2023-03-11T16:45:12;10.00;;;2.00;;
25936;SDS011;13733;51.178;4.450;2023-03-11T16:47:39;5.93;;;1.83;;
25936;SDS011;13733;51.178;4.450;2023-03-11T16:50:06;6.00;;;1.80;;
25936;SDS011;13733;51.178;4.450;2023-03-11T16:52:33;5.45;;;1.60;;
25936;SDS011;13733;51.178;4.450;2023-03-11T16:54:58;6.15;;;1.70;;